sensor_id;sensor_type;location;lat;lon;timestamp;P1;durP1;ratioP1;P2;durP2;ratioP2
20984;SDS011;10651;47.552;7.606;2022-07-10T00:00:28;6.30;;;4.05;;
20984;SDS011;10651;47.552;7.606;2022-07-10T00:02:55;6.38;;;3.72;;
20984;SDS011;10651;47.552;7.606;2022-07-10T00:11:42;6.30;;;4.20;;
20984;SDS011;10651;47.552;7.606;2022-07-10T00:14:07;12.25;;;3.88;;
20984;SDS011;10651;47.552;7.606;2022-07-10T00:16:33;5.65;;;3.55;;
20984;SDS011;10651;47.552;7.606;2022-07-10T00:19:00;4.68;;;3.40;;
20984;SDS011;10651;47.552;7.606;2022-07-10T00:21:25;7.15;;;3.67;;
20984;SDS011;10651;47.552;7.606;2022-07-10T00:23:51;4.15;;;3.10;;
20984;SDS011;10651;47.552;7.606;2022-07-10T00:26:17;8.18;;;3.55;;
20984;SDS011;10651;47.552;7.606;2022-07-10T00:28:42;8.82;;;3.90;;
20984;SDS011;10651;47.552;7.606;2022-07-10T00:31:08;4.50;;;3.95;;
20984;SDS011;10651;47.552;7.606;2022-07-10T00:33:35;4.82;;;3.50;;
20984;SDS011;10651;47.552;7.606;2022-07-10T00:36:02;8.90;;;3.72;;
20984;SDS011;10651;47.552;7.606;2022-07-10T00:38:29;7.65;;;3.60;;
20984;SDS011;10651;47.552;7.606;2022-07-10T00:40:55;7.43;;;4.45;;
20984;SDS011;10651;47.552;7.606;2022-07-10T00:43:21;6.10;;;3.15;;
20984;SDS011;10651;47.552;7.606;2022-07-10T00:45:48;5.97;;;3.20;;
20984;SDS011;10651;47.552;7.606;2022-07-10T00:48:14;7.60;;;3.50;;
20984;SDS011;10651;47.552;7.606;2022-07-10T00:50:41;9.55;;;3.28;;
20984;SDS011;10651;47.552;7.606;2022-07-10T00:53:10;3.83;;;3.30;;
20984;SDS011;10651;47.552;7.606;2022-07-10T00:55:37;6.75;;;3.20;;
20984;SDS011;10651;47.552;7.606;2022-07-10T00:58:06;4.82;;;3.63;;
20984;SDS011;10651;47.552;7.606;2022-07-10T01:00:33;7.75;;;3.83;;
20984;SDS011;10651;47.552;7.606;2022-07-10T01:03:00;5.70;;;4.05;;
20984;SDS011;10651;47.552;7.606;2022-07-10T01:05:25;10.50;;;3.90;;
20984;SDS011;10651;47.552;7.606;2022-07-10T01:07:51;5.25;;;3.78;;
20984;SDS011;10651;47.552;7.606;2022-07-10T01:10:17;6.70;;;3.80;;
20984;SDS011;10651;47.552;7.606;2022-07-10T01:12:42;6.20;;;3.70;;
20984;SDS011;10651;47.552;7.606;2022-07-10T01:15:09;4.50;;;4.10;;
20984;SDS011;10651;47.552;7.606;2022-07-10T01:17:36;4.32;;;3.55;;
20984;SDS011;10651;47.552;7.606;2022-07-10T01:20:08;6.50;;;4.22;;
20984;SDS011;10651;47.552;7.606;2022-07-10T01:22:35;5.47;;;4.07;;
20984;SDS011;10651;47.552;7.606;2022-07-10T01:25:02;5.35;;;3.97;;
20984;SDS011;10651;47.552;7.606;2022-07-10T01:27:28;7.15;;;4.28;;
20984;SDS011;10651;47.552;7.606;2022-07-10T01:29:54;6.85;;;4.30;;
20984;SDS011;10651;47.552;7.606;2022-07-10T01:32:19;5.50;;;4.25;;
20984;SDS011;10651;47.552;7.606;2022-07-10T01:34:45;10.63;;;4.47;;
20984;SDS011;10651;47.552;7.606;2022-07-10T01:37:12;9.48;;;4.88;;
20984;SDS011;10651;47.552;7.606;2022-07-10T01:39:37;6.88;;;4.82;;
20984;SDS011;10651;47.552;7.606;2022-07-10T01:42:03;5.95;;;4.78;;
20984;SDS011;10651;47.552;7.606;2022-07-10T01:44:29;5.20;;;4.70;;
20984;SDS011;10651;47.552;7.606;2022-07-10T01:46:54;7.22;;;4.45;;
20984;SDS011;10651;47.552;7.606;2022-07-10T01:49:20;5.93;;;4.53;;
20984;SDS011;10651;47.552;7.606;2022-07-10T01:51:45;5.63;;;4.03;;
20984;SDS011;10651;47.552;7.606;2022-07-10T01:54:11;8.65;;;4.22;;
20984;SDS011;10651;47.552;7.606;2022-07-10T01:56:37;5.65;;;4.45;;
20984;SDS011;10651;47.552;7.606;2022-07-10T01:59:03;5.32;;;4.43;;
20984;SDS011;10651;47.552;7.606;2022-07-10T02:01:29;6.38;;;4.88;;
20984;SDS011;10651;47.552;7.606;2022-07-10T02:03:55;8.07;;;5.15;;
20984;SDS011;10651;47.552;7.606;2022-07-10T02:06:39;7.97;;;5.28;;
20984;SDS011;10651;47.552;7.606;2022-07-10T02:09:05;7.60;;;5.78;;
20984;SDS011;10651;47.552;7.606;2022-07-10T02:11:30;8.57;;;5.78;;
20984;SDS011;10651;47.552;7.606;2022-07-10T02:13:56;7.15;;;5.43;;
20984;SDS011;10651;47.552;7.606;2022-07-10T02:16:22;6.25;;;5.35;;
20984;SDS011;10651;47.552;7.606;2022-07-10T02:18:47;6.40;;;5.60;;
20984;SDS011;10651;47.552;7.606;2022-07-10T02:21:13;7.10;;;5.88;;
20984;SDS011;10651;47.552;7.606;2022-07-10T02:23:38;10.10;;;5.88;;
20984;SDS011;10651;47.552;7.606;2022-07-10T02:26:05;9.88;;;6.22;;
20984;SDS011;10651;47.552;7.606;2022-07-10T02:28:32;7.82;;;6.13;;
20984;SDS011;10651;47.552;7.606;2022-07-10T02:30:57;12.68;;;5.88;;
20984;SDS011;10651;47.552;7.606;2022-07-10T02:33:23;12.90;;;6.10;;
20984;SDS011;10651;47.552;7.606;2022-07-10T02:35:49;10.15;;;6.13;;
20984;SDS011;10651;47.552;7.606;2022-07-10T02:38:14;7.55;;;6.25;;
20984;SDS011;10651;47.552;7.606;2022-07-10T02:40:40;11.07;;;7.40;;
20984;SDS011;10651;47.552;7.606;2022-07-10T02:43:06;8.00;;;5.95;;
20984;SDS011;10651;47.552;7.606;2022-07-10T02:45:31;9.05;;;5.75;;
20984;SDS011;10651;47.552;7.606;2022-07-10T02:47:57;9.10;;;6.35;;
20984;SDS011;10651;47.552;7.606;2022-07-10T02:50:22;11.35;;;6.93;;
20984;SDS011;10651;47.552;7.606;2022-07-10T02:52:48;8.02;;;5.90;;
20984;SDS011;10651;47.552;7.606;2022-07-10T02:55:13;8.43;;;6.22;;
20984;SDS011;10651;47.552;7.606;2022-07-10T02:57:39;9.52;;;6.40;;
20984;SDS011;10651;47.552;7.606;2022-07-10T03:00:05;8.93;;;5.55;;
20984;SDS011;10651;47.552;7.606;2022-07-10T03:02:31;13.35;;;7.18;;
20984;SDS011;10651;47.552;7.606;2022-07-10T03:04:57;9.45;;;6.65;;
20984;SDS011;10651;47.552;7.606;2022-07-10T03:07:22;9.20;;;6.43;;
20984;SDS011;10651;47.552;7.606;2022-07-10T03:09:48;11.23;;;5.97;;
20984;SDS011;10651;47.552;7.606;2022-07-10T03:12:14;7.40;;;5.95;;
20984;SDS011;10651;47.552;7.606;2022-07-10T03:14:39;12.40;;;6.18;;
20984;SDS011;10651;47.552;7.606;2022-07-10T03:17:05;8.50;;;6.75;;
20984;SDS011;10651;47.552;7.606;2022-07-10T03:19:31;6.88;;;5.82;;
20984;SDS011;10651;47.552;7.606;2022-07-10T03:21:58;7.03;;;6.03;;
20984;SDS011;10651;47.552;7.606;2022-07-10T03:24:24;11.80;;;6.57;;
20984;SDS011;10651;47.552;7.606;2022-07-10T03:26:49;7.88;;;6.82;;
20984;SDS011;10651;47.552;7.606;2022-07-10T03:29:15;8.55;;;7.00;;
20984;SDS011;10651;47.552;7.606;2022-07-10T03:31:40;8.27;;;6.57;;
20984;SDS011;10651;47.552;7.606;2022-07-10T03:34:06;6.80;;;6.10;;
20984;SDS011;10651;47.552;7.606;2022-07-10T03:36:32;9.18;;;6.10;;
20984;SDS011;10651;47.552;7.606;2022-07-10T03:38:57;11.07;;;6.68;;
20984;SDS011;10651;47.552;7.606;2022-07-10T03:41:23;7.30;;;6.55;;
20984;SDS011;10651;47.552;7.606;2022-07-10T03:43:49;8.88;;;6.55;;
20984;SDS011;10651;47.552;7.606;2022-07-10T03:46:15;8.25;;;7.03;;
20984;SDS011;10651;47.552;7.606;2022-07-10T03:48:40;11.60;;;7.38;;
20984;SDS011;10651;47.552;7.606;2022-07-10T03:51:06;9.13;;;7.22;;
20984;SDS011;10651;47.552;7.606;2022-07-10T03:53:32;8.50;;;7.70;;
20984;SDS011;10651;47.552;7.606;2022-07-10T03:55:57;8.75;;;7.45;;
20984;SDS011;10651;47.552;7.606;2022-07-10T03:58:25;9.02;;;7.03;;
20984;SDS011;10651;47.552;7.606;2022-07-10T04:00:51;8.50;;;7.32;;
20984;SDS011;10651;47.552;7.606;2022-07-10T04:03:16;9.88;;;7.32;;
20984;SDS011;10651;47.552;7.606;2022-07-10T04:05:43;8.15;;;7.22;;
20984;SDS011;10651;47.552;7.606;2022-07-10T04:08:08;9.18;;;7.45;;
20984;SDS011;10651;47.552;7.606;2022-07-10T04:10:36;10.77;;;7.38;;
20984;SDS011;10651;47.552;7.606;2022-07-10T04:13:02;9.90;;;7.43;;
20984;SDS011;10651;47.552;7.606;2022-07-10T04:15:28;8.13;;;7.32;;
20984;SDS011;10651;47.552;7.606;2022-07-10T04:17:53;7.88;;;6.97;;
20984;SDS011;10651;47.552;7.606;2022-07-10T04:20:19;9.25;;;8.10;;
20984;SDS011;10651;47.552;7.606;2022-07-10T04:22:45;9.25;;;7.70;;
20984;SDS011;10651;47.552;7.606;2022-07-10T04:25:11;8.85;;;7.57;;
20984;SDS011;10651;47.552;7.606;2022-07-10T04:27:38;8.32;;;7.47;;
20984;SDS011;10651;47.552;7.606;2022-07-10T04:30:04;9.25;;;8.23;;
20984;SDS011;10651;47.552;7.606;2022-07-10T04:32:30;8.52;;;7.47;;
20984;SDS011;10651;47.552;7.606;2022-07-10T04:34:56;10.05;;;7.43;;
20984;SDS011;10651;47.552;7.606;2022-07-10T04:37:22;8.90;;;7.97;;
20984;SDS011;10651;47.552;7.606;2022-07-10T04:39:48;10.98;;;8.02;;
20984;SDS011;10651;47.552;7.606;2022-07-10T04:42:13;11.57;;;8.00;;
20984;SDS011;10651;47.552;7.606;2022-07-10T04:44:39;11.68;;;8.10;;
20984;SDS011;10651;47.552;7.606;2022-07-10T04:47:05;9.90;;;8.07;;
20984;SDS011;10651;47.552;7.606;2022-07-10T04:49:31;11.15;;;8.32;;
20984;SDS011;10651;47.552;7.606;2022-07-10T04:51:57;11.00;;;8.70;;
20984;SDS011;10651;47.552;7.606;2022-07-10T04:54:23;9.60;;;7.63;;
20984;SDS011;10651;47.552;7.606;2022-07-10T04:56:48;11.43;;;8.40;;
20984;SDS011;10651;47.552;7.606;2022-07-10T04:59:14;9.50;;;8.25;;
20984;SDS011;10651;47.552;7.606;2022-07-10T05:01:40;16.42;;;8.77;;
20984;SDS011;10651;47.552;7.606;2022-07-10T05:04:06;11.60;;;9.38;;
20984;SDS011;10651;47.552;7.606;2022-07-10T05:06:31;12.73;;;9.38;;
20984;SDS011;10651;47.552;7.606;2022-07-10T05:08:57;8.70;;;7.65;;
20984;SDS011;10651;47.552;7.606;2022-07-10T05:11:24;13.18;;;7.97;;
20984;SDS011;10651;47.552;7.606;2022-07-10T05:13:50;11.45;;;8.15;;
20984;SDS011;10651;47.552;7.606;2022-07-10T05:16:16;11.52;;;8.35;;
20984;SDS011;10651;47.552;7.606;2022-07-10T05:18:43;12.43;;;8.20;;
20984;SDS011;10651;47.552;7.606;2022-07-10T05:21:08;11.45;;;7.47;;
20984;SDS011;10651;47.552;7.606;2022-07-10T05:23:34;10.40;;;8.23;;
20984;SDS011;10651;47.552;7.606;2022-07-10T05:26:02;11.88;;;8.48;;
20984;SDS011;10651;47.552;7.606;2022-07-10T05:28:27;8.93;;;7.75;;
20984;SDS011;10651;47.552;7.606;2022-07-10T05:30:53;10.45;;;7.70;;
20984;SDS011;10651;47.552;7.606;2022-07-10T05:33:18;8.52;;;7.18;;
20984;SDS011;10651;47.552;7.606;2022-07-10T05:35:44;8.50;;;6.22;;
20984;SDS011;10651;47.552;7.606;2022-07-10T05:38:10;8.50;;;7.35;;
20984;SDS011;10651;47.552;7.606;2022-07-10T05:40:36;7.18;;;6.20;;
20984;SDS011;10651;47.552;7.606;2022-07-10T05:43:02;8.35;;;6.18;;
20984;SDS011;10651;47.552;7.606;2022-07-10T05:45:28;6.97;;;6.28;;
20984;SDS011;10651;47.552;7.606;2022-07-10T05:47:54;6.97;;;6.25;;
20984;SDS011;10651;47.552;7.606;2022-07-10T05:50:20;6.78;;;6.07;;
20984;SDS011;10651;47.552;7.606;2022-07-10T05:52:45;7.07;;;6.25;;
20984;SDS011;10651;47.552;7.606;2022-07-10T05:55:11;8.60;;;6.55;;
20984;SDS011;10651;47.552;7.606;2022-07-10T05:57:37;8.98;;;7.10;;
20984;SDS011;10651;47.552;7.606;2022-07-10T06:00:04;12.43;;;6.75;;
20984;SDS011;10651;47.552;7.606;2022-07-10T06:02:30;10.45;;;6.97;;
20984;SDS011;10651;47.552;7.606;2022-07-10T06:04:56;9.43;;;7.20;;
20984;SDS011;10651;47.552;7.606;2022-07-10T06:07:21;9.98;;;7.57;;
20984;SDS011;10651;47.552;7.606;2022-07-10T06:09:47;11.13;;;6.80;;
20984;SDS011;10651;47.552;7.606;2022-07-10T06:12:13;10.30;;;7.10;;
20984;SDS011;10651;47.552;7.606;2022-07-10T06:14:40;9.10;;;7.30;;
20984;SDS011;10651;47.552;7.606;2022-07-10T06:17:06;9.02;;;7.00;;
20984;SDS011;10651;47.552;7.606;2022-07-10T06:19:32;9.68;;;7.88;;
20984;SDS011;10651;47.552;7.606;2022-07-10T06:21:58;11.80;;;7.65;;
20984;SDS011;10651;47.552;7.606;2022-07-10T06:24:43;11.07;;;7.53;;
20984;SDS011;10651;47.552;7.606;2022-07-10T06:27:08;11.88;;;7.63;;
20984;SDS011;10651;47.552;7.606;2022-07-10T06:29:34;10.40;;;6.90;;
20984;SDS011;10651;47.552;7.606;2022-07-10T06:32:00;11.02;;;6.50;;
20984;SDS011;10651;47.552;7.606;2022-07-10T06:34:26;11.13;;;7.30;;
20984;SDS011;10651;47.552;7.606;2022-07-10T06:36:51;11.02;;;7.15;;
20984;SDS011;10651;47.552;7.606;2022-07-10T06:39:17;9.13;;;7.78;;
20984;SDS011;10651;47.552;7.606;2022-07-10T06:41:43;11.05;;;7.65;;
20984;SDS011;10651;47.552;7.606;2022-07-10T06:44:09;10.25;;;7.70;;
20984;SDS011;10651;47.552;7.606;2022-07-10T06:46:34;12.82;;;7.40;;
20984;SDS011;10651;47.552;7.606;2022-07-10T06:49:00;8.93;;;8.07;;
20984;SDS011;10651;47.552;7.606;2022-07-10T06:51:26;8.57;;;7.07;;
20984;SDS011;10651;47.552;7.606;2022-07-10T06:53:51;7.75;;;6.68;;
20984;SDS011;10651;47.552;7.606;2022-07-10T06:56:17;8.75;;;6.53;;
20984;SDS011;10651;47.552;7.606;2022-07-10T06:58:43;7.10;;;6.07;;
20984;SDS011;10651;47.552;7.606;2022-07-10T07:01:09;10.48;;;6.50;;
20984;SDS011;10651;47.552;7.606;2022-07-10T07:03:35;8.43;;;7.10;;
20984;SDS011;10651;47.552;7.606;2022-07-10T07:06:00;11.10;;;6.88;;
20984;SDS011;10651;47.552;7.606;2022-07-10T07:08:28;10.50;;;7.00;;
20984;SDS011;10651;47.552;7.606;2022-07-10T07:10:54;10.35;;;6.88;;
20984;SDS011;10651;47.552;7.606;2022-07-10T07:13:20;6.85;;;5.75;;
20984;SDS011;10651;47.552;7.606;2022-07-10T07:15:46;10.95;;;6.07;;
20984;SDS011;10651;47.552;7.606;2022-07-10T07:18:20;6.32;;;5.72;;
20984;SDS011;10651;47.552;7.606;2022-07-10T07:20:47;6.43;;;5.55;;
20984;SDS011;10651;47.552;7.606;2022-07-10T07:23:31;7.38;;;5.65;;
20984;SDS011;10651;47.552;7.606;2022-07-10T07:25:57;13.32;;;7.53;;
20984;SDS011;10651;47.552;7.606;2022-07-10T07:28:22;37.50;;;16.92;;
20984;SDS011;10651;47.552;7.606;2022-07-10T07:30:49;9.15;;;6.40;;
20984;SDS011;10651;47.552;7.606;2022-07-10T07:33:15;10.52;;;5.47;;
20984;SDS011;10651;47.552;7.606;2022-07-10T07:35:41;7.28;;;5.30;;
20984;SDS011;10651;47.552;7.606;2022-07-10T07:38:07;6.45;;;5.35;;
20984;SDS011;10651;47.552;7.606;2022-07-10T07:40:33;7.10;;;4.80;;
20984;SDS011;10651;47.552;7.606;2022-07-10T07:42:59;10.00;;;5.25;;
20984;SDS011;10651;47.552;7.606;2022-07-10T07:45:25;6.35;;;4.88;;
20984;SDS011;10651;47.552;7.606;2022-07-10T07:50:19;7.28;;;4.75;;
20984;SDS011;10651;47.552;7.606;2022-07-10T07:52:46;6.30;;;4.80;;
20984;SDS011;10651;47.552;7.606;2022-07-10T07:55:13;7.30;;;4.80;;
20984;SDS011;10651;47.552;7.606;2022-07-10T07:57:40;6.97;;;4.35;;
20984;SDS011;10651;47.552;7.606;2022-07-10T08:00:06;6.15;;;4.00;;
20984;SDS011;10651;47.552;7.606;2022-07-10T08:02:33;5.38;;;4.53;;
20984;SDS011;10651;47.552;7.606;2022-07-10T08:04:59;6.15;;;4.28;;
20984;SDS011;10651;47.552;7.606;2022-07-10T08:10:08;7.55;;;4.57;;
20984;SDS011;10651;47.552;7.606;2022-07-10T08:12:35;9.80;;;4.47;;
20984;SDS011;10651;47.552;7.606;2022-07-10T08:15:01;7.53;;;4.22;;
20984;SDS011;10651;47.552;7.606;2022-07-10T08:17:27;7.60;;;4.38;;
20984;SDS011;10651;47.552;7.606;2022-07-10T08:19:53;6.57;;;4.63;;
20984;SDS011;10651;47.552;7.606;2022-07-10T08:22:19;7.03;;;4.28;;
20984;SDS011;10651;47.552;7.606;2022-07-10T08:24:45;7.13;;;4.90;;
20984;SDS011;10651;47.552;7.606;2022-07-10T08:27:10;11.27;;;4.57;;
20984;SDS011;10651;47.552;7.606;2022-07-10T08:29:37;13.70;;;4.90;;
20984;SDS011;10651;47.552;7.606;2022-07-10T08:32:03;5.25;;;4.47;;
20984;SDS011;10651;47.552;7.606;2022-07-10T08:34:30;6.70;;;5.00;;
20984;SDS011;10651;47.552;7.606;2022-07-10T08:36:57;8.57;;;4.57;;
20984;SDS011;10651;47.552;7.606;2022-07-10T08:39:22;10.85;;;5.32;;
20984;SDS011;10651;47.552;7.606;2022-07-10T08:41:48;4.90;;;4.18;;
20984;SDS011;10651;47.552;7.606;2022-07-10T08:44:16;7.18;;;4.60;;
20984;SDS011;10651;47.552;7.606;2022-07-10T08:46:43;7.10;;;4.93;;
20984;SDS011;10651;47.552;7.606;2022-07-10T08:49:09;6.60;;;4.03;;
20984;SDS011;10651;47.552;7.606;2022-07-10T08:51:47;7.75;;;4.20;;
20984;SDS011;10651;47.552;7.606;2022-07-10T08:54:13;6.88;;;4.38;;
20984;SDS011;10651;47.552;7.606;2022-07-10T08:56:42;6.45;;;4.45;;
20984;SDS011;10651;47.552;7.606;2022-07-10T08:59:08;6.05;;;4.57;;
20984;SDS011;10651;47.552;7.606;2022-07-10T09:01:37;8.00;;;4.10;;
20984;SDS011;10651;47.552;7.606;2022-07-10T09:04:03;6.22;;;3.80;;
20984;SDS011;10651;47.552;7.606;2022-07-10T09:06:29;4.60;;;4.18;;
20984;SDS011;10651;47.552;7.606;2022-07-10T09:08:59;6.63;;;4.55;;
20984;SDS011;10651;47.552;7.606;2022-07-10T09:11:33;7.00;;;4.78;;
20984;SDS011;10651;47.552;7.606;2022-07-10T09:14:00;7.88;;;4.15;;
20984;SDS011;10651;47.552;7.606;2022-07-10T09:16:30;9.77;;;4.32;;
20984;SDS011;10651;47.552;7.606;2022-07-10T09:21:49;6.28;;;4.30;;
20984;SDS011;10651;47.552;7.606;2022-07-10T09:24:16;5.53;;;3.97;;
20984;SDS011;10651;47.552;7.606;2022-07-10T09:26:45;7.88;;;5.35;;
20984;SDS011;10651;47.552;7.606;2022-07-10T09:29:18;5.47;;;3.83;;
20984;SDS011;10651;47.552;7.606;2022-07-10T09:31:54;8.85;;;4.40;;
20984;SDS011;10651;47.552;7.606;2022-07-10T09:34:37;7.45;;;4.55;;
20984;SDS011;10651;47.552;7.606;2022-07-10T09:37:26;15.48;;;4.05;;
20984;SDS011;10651;47.552;7.606;2022-07-10T09:40:04;5.93;;;4.20;;
20984;SDS011;10651;47.552;7.606;2022-07-10T09:42:32;6.70;;;3.95;;
20984;SDS011;10651;47.552;7.606;2022-07-10T09:47:43;4.80;;;3.50;;
20984;SDS011;10651;47.552;7.606;2022-07-10T09:52:50;7.32;;;3.83;;
20984;SDS011;10651;47.552;7.606;2022-07-10T09:55:27;6.75;;;3.88;;
20984;SDS011;10651;47.552;7.606;2022-07-10T09:57:58;7.50;;;3.80;;
20984;SDS011;10651;47.552;7.606;2022-07-10T10:00:27;4.93;;;3.65;;
20984;SDS011;10651;47.552;7.606;2022-07-10T10:02:54;4.43;;;3.50;;
20984;SDS011;10651;47.552;7.606;2022-07-10T10:05:34;7.00;;;3.40;;
20984;SDS011;10651;47.552;7.606;2022-07-10T10:08:16;4.85;;;3.47;;
20984;SDS011;10651;47.552;7.606;2022-07-10T10:10:48;4.45;;;3.30;;
20984;SDS011;10651;47.552;7.606;2022-07-10T10:13:19;3.63;;;3.17;;
20984;SDS011;10651;47.552;7.606;2022-07-10T10:15:49;8.35;;;3.15;;
20984;SDS011;10651;47.552;7.606;2022-07-10T10:18:20;3.00;;;2.67;;
20984;SDS011;10651;47.552;7.606;2022-07-10T10:20:47;4.00;;;2.90;;
20984;SDS011;10651;47.552;7.606;2022-07-10T10:23:18;5.32;;;3.17;;
20984;SDS011;10651;47.552;7.606;2022-07-10T10:25:47;4.70;;;2.83;;
20984;SDS011;10651;47.552;7.606;2022-07-10T10:28:14;8.15;;;2.92;;
20984;SDS011;10651;47.552;7.606;2022-07-10T10:30:42;4.78;;;2.80;;
20984;SDS011;10651;47.552;7.606;2022-07-10T10:36:00;7.90;;;2.45;;
20984;SDS011;10651;47.552;7.606;2022-07-10T10:39:13;9.25;;;3.28;;
20984;SDS011;10651;47.552;7.606;2022-07-10T10:41:45;7.45;;;3.05;;
20984;SDS011;10651;47.552;7.606;2022-07-10T10:49:48;7.55;;;2.70;;
20984;SDS011;10651;47.552;7.606;2022-07-10T10:52:14;5.20;;;2.38;;
20984;SDS011;10651;47.552;7.606;2022-07-10T10:57:43;4.57;;;2.88;;
20984;SDS011;10651;47.552;7.606;2022-07-10T11:00:29;7.57;;;2.47;;
20984;SDS011;10651;47.552;7.606;2022-07-10T11:03:14;2.70;;;2.20;;
20984;SDS011;10651;47.552;7.606;2022-07-10T11:05:45;5.03;;;2.92;;
20984;SDS011;10651;47.552;7.606;2022-07-10T11:08:12;4.53;;;2.40;;
20984;SDS011;10651;47.552;7.606;2022-07-10T11:10:44;3.75;;;2.63;;
20984;SDS011;10651;47.552;7.606;2022-07-10T11:13:11;6.55;;;2.55;;
20984;SDS011;10651;47.552;7.606;2022-07-10T11:20:37;5.10;;;2.45;;
20984;SDS011;10651;47.552;7.606;2022-07-10T11:23:13;4.15;;;2.35;;
20984;SDS011;10651;47.552;7.606;2022-07-10T11:26:06;4.50;;;2.53;;
20984;SDS011;10651;47.552;7.606;2022-07-10T11:31:14;6.70;;;2.72;;
20984;SDS011;10651;47.552;7.606;2022-07-10T11:33:44;8.55;;;2.85;;
20984;SDS011;10651;47.552;7.606;2022-07-10T11:36:12;3.67;;;2.70;;
20984;SDS011;10651;47.552;7.606;2022-07-10T11:38:39;5.50;;;2.40;;
20984;SDS011;10651;47.552;7.606;2022-07-10T11:43:49;3.70;;;2.72;;
20984;SDS011;10651;47.552;7.606;2022-07-10T11:46:15;3.25;;;2.58;;
20984;SDS011;10651;47.552;7.606;2022-07-10T11:48:41;3.78;;;2.47;;
20984;SDS011;10651;47.552;7.606;2022-07-10T11:53:56;5.05;;;2.47;;
20984;SDS011;10651;47.552;7.606;2022-07-10T11:56:24;5.20;;;2.75;;
20984;SDS011;10651;47.552;7.606;2022-07-10T11:59:24;5.60;;;2.40;;
20984;SDS011;10651;47.552;7.606;2022-07-10T12:01:48;8.57;;;2.40;;
20984;SDS011;10651;47.552;7.606;2022-07-10T12:04:15;6.43;;;2.65;;
20984;SDS011;10651;47.552;7.606;2022-07-10T12:06:43;2.85;;;2.58;;
20984;SDS011;10651;47.552;7.606;2022-07-10T12:09:12;4.30;;;2.45;;
20984;SDS011;10651;47.552;7.606;2022-07-10T12:11:38;6.05;;;1.92;;
20984;SDS011;10651;47.552;7.606;2022-07-10T12:14:12;4.30;;;2.30;;
20984;SDS011;10651;47.552;7.606;2022-07-10T12:16:45;2.88;;;2.00;;
20984;SDS011;10651;47.552;7.606;2022-07-10T12:19:13;2.80;;;1.80;;
20984;SDS011;10651;47.552;7.606;2022-07-10T12:21:40;6.35;;;2.40;;
20984;SDS011;10651;47.552;7.606;2022-07-10T12:24:07;2.90;;;1.98;;
20984;SDS011;10651;47.552;7.606;2022-07-10T12:26:34;3.55;;;2.10;;
20984;SDS011;10651;47.552;7.606;2022-07-10T12:29:04;4.50;;;2.22;;
20984;SDS011;10651;47.552;7.606;2022-07-10T12:31:31;2.88;;;2.17;;
20984;SDS011;10651;47.552;7.606;2022-07-10T12:33:59;6.20;;;2.00;;
20984;SDS011;10651;47.552;7.606;2022-07-10T12:36:45;3.50;;;2.10;;
20984;SDS011;10651;47.552;7.606;2022-07-10T12:39:15;2.95;;;1.80;;
20984;SDS011;10651;47.552;7.606;2022-07-10T12:41:56;4.72;;;1.45;;
20984;SDS011;10651;47.552;7.606;2022-07-10T12:44:29;4.05;;;1.65;;
20984;SDS011;10651;47.552;7.606;2022-07-10T12:52:26;2.55;;;1.58;;
20984;SDS011;10651;47.552;7.606;2022-07-10T12:55:16;1.95;;;1.40;;
20984;SDS011;10651;47.552;7.606;2022-07-10T12:58:05;2.55;;;1.67;;
20984;SDS011;10651;47.552;7.606;2022-07-10T13:00:31;6.43;;;1.45;;
20984;SDS011;10651;47.552;7.606;2022-07-10T13:03:09;6.35;;;1.38;;
20984;SDS011;10651;47.552;7.606;2022-07-10T13:10:44;1.25;;;1.10;;
20984;SDS011;10651;47.552;7.606;2022-07-10T13:13:13;1.30;;;1.15;;
20984;SDS011;10651;47.552;7.606;2022-07-10T13:15:39;1.52;;;0.90;;
20984;SDS011;10651;47.552;7.606;2022-07-10T13:18:16;6.03;;;1.65;;
20984;SDS011;10651;47.552;7.606;2022-07-10T13:20:43;1.23;;;1.13;;
20984;SDS011;10651;47.552;7.606;2022-07-10T13:23:09;2.13;;;1.25;;
20984;SDS011;10651;47.552;7.606;2022-07-10T13:25:38;4.38;;;1.10;;
20984;SDS011;10651;47.552;7.606;2022-07-10T13:28:04;1.42;;;1.15;;
20984;SDS011;10651;47.552;7.606;2022-07-10T13:30:31;2.38;;;1.48;;
20984;SDS011;10651;47.552;7.606;2022-07-10T13:32:58;3.20;;;1.15;;
20984;SDS011;10651;47.552;7.606;2022-07-10T13:35:23;5.35;;;1.05;;
20984;SDS011;10651;47.552;7.606;2022-07-10T13:37:51;2.13;;;1.00;;
20984;SDS011;10651;47.552;7.606;2022-07-10T13:40:17;1.42;;;1.20;;
20984;SDS011;10651;47.552;7.606;2022-07-10T13:42:43;1.90;;;1.02;;
20984;SDS011;10651;47.552;7.606;2022-07-10T13:45:09;2.03;;;1.10;;
20984;SDS011;10651;47.552;7.606;2022-07-10T13:47:35;1.48;;;1.00;;
20984;SDS011;10651;47.552;7.606;2022-07-10T13:50:01;4.72;;;1.50;;
20984;SDS011;10651;47.552;7.606;2022-07-10T13:52:26;1.30;;;1.15;;
20984;SDS011;10651;47.552;7.606;2022-07-10T13:54:52;2.90;;;1.30;;
20984;SDS011;10651;47.552;7.606;2022-07-10T13:57:17;3.10;;;1.42;;
20984;SDS011;10651;47.552;7.606;2022-07-10T13:59:43;1.98;;;1.20;;
20984;SDS011;10651;47.552;7.606;2022-07-10T14:02:10;1.63;;;1.40;;
20984;SDS011;10651;47.552;7.606;2022-07-10T14:04:37;3.33;;;1.17;;
20984;SDS011;10651;47.552;7.606;2022-07-10T14:07:02;2.50;;;1.30;;
20984;SDS011;10651;47.552;7.606;2022-07-10T14:09:28;2.95;;;1.60;;
20984;SDS011;10651;47.552;7.606;2022-07-10T14:11:54;3.30;;;1.98;;
20984;SDS011;10651;47.552;7.606;2022-07-10T14:14:20;3.67;;;1.60;;
20984;SDS011;10651;47.552;7.606;2022-07-10T14:16:47;3.92;;;1.55;;
20984;SDS011;10651;47.552;7.606;2022-07-10T14:19:14;1.30;;;1.20;;
20984;SDS011;10651;47.552;7.606;2022-07-10T14:21:40;3.90;;;1.33;;
20984;SDS011;10651;47.552;7.606;2022-07-10T14:24:05;2.22;;;1.40;;
20984;SDS011;10651;47.552;7.606;2022-07-10T14:26:31;4.90;;;1.52;;
20984;SDS011;10651;47.552;7.606;2022-07-10T14:29:00;3.28;;;1.58;;
20984;SDS011;10651;47.552;7.606;2022-07-10T14:31:26;2.35;;;1.20;;
20984;SDS011;10651;47.552;7.606;2022-07-10T14:33:52;2.78;;;1.35;;
20984;SDS011;10651;47.552;7.606;2022-07-10T14:36:18;3.22;;;1.20;;
20984;SDS011;10651;47.552;7.606;2022-07-10T14:38:43;4.43;;;1.42;;
20984;SDS011;10651;47.552;7.606;2022-07-10T14:41:09;5.30;;;1.90;;
20984;SDS011;10651;47.552;7.606;2022-07-10T14:43:35;2.10;;;1.50;;
20984;SDS011;10651;47.552;7.606;2022-07-10T14:46:02;4.22;;;1.40;;
20984;SDS011;10651;47.552;7.606;2022-07-10T14:48:31;5.60;;;1.65;;
20984;SDS011;10651;47.552;7.606;2022-07-10T14:50:57;2.50;;;1.52;;
20984;SDS011;10651;47.552;7.606;2022-07-10T14:53:23;3.17;;;1.83;;
20984;SDS011;10651;47.552;7.606;2022-07-10T14:55:49;3.70;;;1.50;;
20984;SDS011;10651;47.552;7.606;2022-07-10T14:58:14;3.50;;;1.40;;
20984;SDS011;10651;47.552;7.606;2022-07-10T15:00:40;1.75;;;1.55;;
20984;SDS011;10651;47.552;7.606;2022-07-10T15:03:06;6.20;;;1.58;;
20984;SDS011;10651;47.552;7.606;2022-07-10T15:05:32;2.40;;;1.45;;
20984;SDS011;10651;47.552;7.606;2022-07-10T15:07:58;1.80;;;1.40;;
20984;SDS011;10651;47.552;7.606;2022-07-10T15:10:25;1.92;;;1.70;;
20984;SDS011;10651;47.552;7.606;2022-07-10T15:12:51;3.10;;;1.42;;
20984;SDS011;10651;47.552;7.606;2022-07-10T15:15:17;1.85;;;1.60;;
20984;SDS011;10651;47.552;7.606;2022-07-10T15:17:42;3.70;;;1.75;;
20984;SDS011;10651;47.552;7.606;2022-07-10T15:20:10;2.65;;;1.33;;
20984;SDS011;10651;47.552;7.606;2022-07-10T15:22:36;2.72;;;1.77;;
20984;SDS011;10651;47.552;7.606;2022-07-10T15:25:02;5.45;;;1.55;;
20984;SDS011;10651;47.552;7.606;2022-07-10T15:27:28;4.78;;;1.55;;
20984;SDS011;10651;47.552;7.606;2022-07-10T15:29:53;2.97;;;1.30;;
20984;SDS011;10651;47.552;7.606;2022-07-10T15:32:19;1.65;;;1.23;;
20984;SDS011;10651;47.552;7.606;2022-07-10T15:34:46;4.63;;;1.60;;
20984;SDS011;10651;47.552;7.606;2022-07-10T15:37:14;3.00;;;1.60;;
20984;SDS011;10651;47.552;7.606;2022-07-10T15:39:40;4.03;;;1.63;;
20984;SDS011;10651;47.552;7.606;2022-07-10T15:42:08;1.77;;;1.10;;